createdAt,value
2023-06-16T00:01:36.997Z,87.81
2023-06-16T00:04:08.071Z,87.59
2023-06-16T00:06:37.323Z,88.00
2023-06-16T00:09:06.027Z,88.22
2023-06-16T00:11:36.031Z,89.12
2023-06-16T00:14:04.475Z,88.82
2023-06-16T00:16:34.020Z,89.20
2023-06-16T00:19:03.310Z,89.16
2023-06-16T00:21:39.394Z,89.54
2023-06-16T00:24:08.746Z,90.94
2023-06-16T00:26:39.064Z,91.27
2023-06-16T00:29:09.030Z,91.91
2023-06-16T00:31:37.688Z,91.45
2023-06-16T00:34:07.786Z,91.10
2023-06-16T00:36:36.499Z,90.78
2023-06-16T00:39:05.533Z,90.37
2023-06-16T00:41:33.993Z,90.68
2023-06-16T00:44:05.185Z,91.35
2023-06-16T00:46:38.382Z,91.60
2023-06-16T00:49:07.874Z,91.43
2023-06-16T00:51:37.827Z,91.86
2023-06-16T00:54:08.173Z,91.81
2023-06-16T00:56:39.453Z,92.44
2023-06-16T00:59:09.685Z,92.69
2023-06-16T01:01:39.318Z,93.39
2023-06-16T01:04:08.323Z,93.73
2023-06-16T01:06:58.856Z,94.02
2023-06-16T01:09:41.962Z,94.20
2023-06-16T01:12:22.513Z,94.38
2023-06-16T01:15:03.803Z,95.00
2023-06-16T01:17:40.148Z,95.17
2023-06-16T01:20:17.767Z,94.99
2023-06-16T01:23:00.320Z,95.54
2023-06-16T01:25:34.906Z,96.15
2023-06-16T01:28:08.972Z,95.50
2023-06-16T01:30:44.293Z,95.32
2023-06-16T01:33:17.709Z,95.72
2023-06-16T01:35:48.512Z,95.88
2023-06-16T01:38:18.699Z,95.97
2023-06-16T01:40:51.017Z,96.14
2023-06-16T01:43:21.940Z,97.11
2023-06-16T01:45:53.388Z,97.47
2023-06-16T01:48:23.502Z,97.50
2023-06-16T01:50:53.813Z,97.27
2023-06-16T01:53:22.352Z,97.40
2023-06-16T01:55:54.577Z,97.61
2023-06-16T01:58:27.962Z,98.03
2023-06-16T02:01:01.546Z,98.70
2023-06-16T02:03:38.359Z,99.00
2023-06-16T02:06:18.288Z,98.62
2023-06-16T02:08:50.671Z,97.95
2023-06-16T02:11:22.891Z,98.38
2023-06-16T02:13:53.388Z,98.47
2023-06-16T02:16:22.917Z,98.93
2023-06-16T02:18:55.239Z,99.63
2023-06-16T02:21:24.137Z,100.00
2023-06-16T02:23:52.736Z,99.94
2023-06-16T02:26:25.615Z,100.00
2023-06-16T02:28:55.209Z,100.00
2023-06-16T02:31:24.288Z,100.00
2023-06-16T02:33:54.027Z,100.00
2023-06-16T02:36:22.708Z,100.00
2023-06-16T02:38:51.692Z,100.00
2023-06-16T02:41:22.092Z,100.00
2023-06-16T02:43:51.149Z,100.00
2023-06-16T02:46:19.733Z,100.00
2023-06-16T02:48:48.887Z,100.00
2023-06-16T02:51:17.462Z,100.00
2023-06-16T02:53:46.422Z,100.00
2023-06-16T02:56:15.413Z,100.00
2023-06-16T02:58:45.883Z,100.00
2023-06-16T03:01:15.625Z,100.00
2023-06-16T03:03:48.364Z,100.00
2023-06-16T03:06:17.699Z,100.00
2023-06-16T03:08:46.795Z,100.00
2023-06-16T03:11:15.366Z,100.00
2023-06-16T03:13:47.099Z,100.00
2023-06-16T03:16:18.267Z,100.00
2023-06-16T03:18:47.241Z,100.00
2023-06-16T03:21:17.471Z,100.00
2023-06-16T03:23:46.920Z,100.00
2023-06-16T03:26:15.601Z,100.00
2023-06-16T03:28:46.232Z,100.00
2023-06-16T03:31:15.593Z,100.00
2023-06-16T03:33:44.594Z,100.00
2023-06-16T03:36:13.712Z,100.00
2023-06-16T03:38:42.256Z,100.00
2023-06-16T03:41:10.890Z,100.00
2023-06-16T03:43:39.454Z,100.00
2023-06-16T03:46:10.028Z,100.00
2023-06-16T03:48:38.751Z,100.00
2023-06-16T03:51:07.393Z,100.00
2023-06-16T03:53:36.025Z,100.00
2023-06-16T03:56:05.059Z,100.00
2023-06-16T03:58:34.119Z,100.00
2023-06-16T04:01:03.553Z,100.00
2023-06-16T04:03:36.041Z,100.00
2023-06-16T04:06:05.407Z,100.00
2023-06-16T04:08:34.498Z,100.00
2023-06-16T04:11:03.515Z,100.00
2023-06-16T04:13:32.877Z,100.00
2023-06-16T04:16:02.150Z,100.00
2023-06-16T04:18:33.274Z,100.00
2023-06-16T04:21:01.875Z,100.00
2023-06-16T04:23:30.486Z,100.00
2023-06-16T04:26:00.008Z,100.00
2023-06-16T04:28:28.771Z,100.00
2023-06-16T04:30:58.106Z,100.00
2023-06-16T04:33:28.144Z,100.00
2023-06-16T04:36:04.356Z,100.00
2023-06-16T04:38:33.862Z,100.00
2023-06-16T04:41:03.486Z,100.00
2023-06-16T04:43:33.444Z,100.00
2023-06-16T04:46:02.549Z,100.00
2023-06-16T04:48:32.258Z,100.00
2023-06-16T04:51:02.174Z,100.00
2023-06-16T04:53:33.053Z,100.00
2023-06-16T04:56:01.970Z,100.00
2023-06-16T04:58:31.469Z,100.00
2023-06-16T05:01:01.919Z,100.00
2023-06-16T05:03:35.731Z,100.00
2023-06-16T05:06:06.418Z,100.00
2023-06-16T05:08:35.092Z,100.00
2023-06-16T05:11:04.274Z,100.00
2023-06-16T05:13:32.862Z,100.00
2023-06-16T05:16:02.168Z,100.00
2023-06-16T05:18:31.898Z,100.00
2023-06-16T05:21:00.566Z,100.00
2023-06-16T05:23:30.667Z,100.00
2023-06-16T05:26:00.515Z,100.00
2023-06-16T05:28:30.960Z,100.00
2023-06-16T05:31:00.652Z,100.00
2023-06-16T05:33:29.923Z,100.00
2023-06-16T05:35:58.538Z,100.00
2023-06-16T05:38:27.770Z,100.00
2023-06-16T05:40:57.657Z,100.00
2023-06-16T05:43:27.295Z,100.00
2023-06-16T05:45:56.523Z,100.00
2023-06-16T05:48:25.122Z,100.00
2023-06-16T05:50:53.727Z,100.00
2023-06-16T05:53:22.287Z,100.00
2023-06-16T05:55:51.377Z,100.00
2023-06-16T05:58:22.752Z,100.00
2023-06-16T06:00:54.826Z,100.00
2023-06-16T06:03:26.678Z,100.00
2023-06-16T06:05:58.840Z,100.00
2023-06-16T06:08:32.471Z,100.00
2023-06-16T06:11:02.585Z,100.00
2023-06-16T06:13:37.185Z,100.00
2023-06-16T06:16:08.218Z,100.00
2023-06-16T06:18:45.280Z,100.00
2023-06-16T06:21:13.853Z,100.00
2023-06-16T06:23:43.145Z,100.00
2023-06-16T06:26:11.821Z,100.00
2023-06-16T06:28:41.728Z,100.00
2023-06-16T06:31:10.646Z,100.00
2023-06-16T06:33:39.152Z,100.00
2023-06-16T06:36:08.558Z,100.00
2023-06-16T06:38:37.731Z,100.00
2023-06-16T06:41:06.465Z,100.00
2023-06-16T06:43:35.000Z,100.00
2023-06-16T06:46:05.411Z,100.00
2023-06-16T06:48:35.196Z,100.00
2023-06-16T06:51:06.938Z,100.00
2023-06-16T06:53:35.663Z,100.00
2023-06-16T06:56:05.175Z,100.00
2023-06-16T06:58:35.034Z,100.00
2023-06-16T07:01:05.906Z,100.00
2023-06-16T07:03:34.798Z,100.00
2023-06-16T07:06:03.426Z,100.00
2023-06-16T07:08:32.576Z,100.00
2023-06-16T07:11:01.473Z,100.00
2023-06-16T07:13:29.968Z,100.00
2023-06-16T07:15:58.875Z,99.70
2023-06-16T07:18:28.719Z,99.13
2023-06-16T07:20:57.245Z,98.94
2023-06-16T07:23:27.018Z,98.79
2023-06-16T07:25:56.284Z,98.50
2023-06-16T07:28:24.881Z,98.42
2023-06-16T07:30:53.558Z,98.30
2023-06-16T07:33:22.005Z,98.01
2023-06-16T07:35:52.917Z,98.03
2023-06-16T07:38:21.813Z,97.57
2023-06-16T07:40:50.642Z,97.02
2023-06-16T07:43:19.236Z,96.33
2023-06-16T07:45:47.805Z,94.92
2023-06-16T07:48:16.701Z,94.78
2023-06-16T07:50:45.184Z,91.58
2023-06-16T07:53:15.657Z,90.20
2023-06-16T07:55:44.145Z,89.98
2023-06-16T07:58:12.777Z,89.79
2023-06-16T08:00:41.400Z,87.69
2023-06-16T08:03:10.199Z,87.08
2023-06-16T08:05:38.854Z,85.84
2023-06-16T08:08:07.872Z,84.15
2023-06-16T08:10:37.873Z,80.68
2023-06-16T08:13:06.454Z,69.11
2023-06-16T08:15:36.277Z,64.86
2023-06-16T08:18:05.023Z,64.70
2023-06-16T08:20:33.831Z,65.76
2023-06-16T08:23:02.318Z,67.44
2023-06-16T08:25:31.179Z,62.62
2023-06-16T08:28:01.373Z,64.47
2023-06-16T08:30:29.971Z,63.75
2023-06-16T08:32:58.538Z,62.62
2023-06-16T08:35:27.093Z,56.22
2023-06-16T08:37:56.285Z,56.30
2023-06-16T08:40:25.112Z,57.17
2023-06-16T08:42:56.680Z,58.23
2023-06-16T08:45:29.495Z,57.27
2023-06-16T08:47:58.478Z,57.43
2023-06-16T08:50:27.260Z,54.56
2023-06-16T08:52:58.658Z,53.63
2023-06-16T08:55:30.258Z,52.56
2023-06-16T08:58:00.043Z,51.92
2023-06-16T09:00:33.942Z,52.41
2023-06-16T09:03:06.553Z,53.22
2023-06-16T09:05:35.213Z,53.29
2023-06-16T09:08:06.416Z,53.36
2023-06-16T09:10:35.711Z,54.13
2023-06-16T09:13:04.679Z,54.61
2023-06-16T09:15:36.867Z,53.90
2023-06-16T09:18:09.853Z,52.90
2023-06-16T09:20:42.887Z,52.42
2023-06-16T09:23:13.076Z,52.77
2023-06-16T09:25:41.993Z,51.15
2023-06-16T09:28:12.000Z,49.93
2023-06-16T09:30:43.937Z,48.22
2023-06-16T09:33:13.650Z,47.94
2023-06-16T09:35:44.367Z,48.55
2023-06-16T09:38:13.328Z,48.55
2023-06-16T09:40:42.433Z,48.78
2023-06-16T09:43:12.775Z,47.24
2023-06-16T09:45:45.728Z,47.91
2023-06-16T09:48:15.506Z,48.64
2023-06-16T09:50:45.801Z,48.19
2023-06-16T09:53:17.855Z,47.16
2023-06-16T09:55:46.681Z,47.02
2023-06-16T09:58:17.981Z,47.10
2023-06-16T10:00:50.417Z,46.53
2023-06-16T10:03:20.166Z,46.73
2023-06-16T10:05:55.685Z,46.02
2023-06-16T10:08:24.224Z,46.55
2023-06-16T10:10:54.934Z,47.04
2023-06-16T10:13:27.236Z,46.76
2023-06-16T10:16:01.980Z,46.98
2023-06-16T10:18:32.993Z,46.47
2023-06-16T10:21:03.169Z,48.21
2023-06-16T10:23:32.941Z,46.29
2023-06-16T10:26:03.085Z,45.23
2023-06-16T10:28:32.955Z,45.19
2023-06-16T10:31:04.365Z,45.33
2023-06-16T10:33:55.491Z,44.61
2023-06-16T10:36:26.738Z,44.88
2023-06-16T10:39:04.543Z,43.99
2023-06-16T10:41:32.958Z,43.50
2023-06-16T10:44:30.358Z,43.17
2023-06-16T10:47:31.916Z,43.13
2023-06-16T10:50:04.033Z,42.51
2023-06-16T10:52:35.962Z,43.09
2023-06-16T10:55:35.104Z,41.87
2023-06-16T10:58:24.934Z,42.15
2023-06-16T11:01:28.974Z,42.85
2023-06-16T11:04:07.712Z,41.60
2023-06-16T11:07:19.693Z,42.87
2023-06-16T11:10:01.465Z,42.75
2023-06-16T11:12:30.091Z,42.69
2023-06-16T11:14:59.132Z,41.83
2023-06-16T11:17:28.192Z,42.31
2023-06-16T11:19:58.424Z,41.35
2023-06-16T11:22:33.129Z,40.37
2023-06-16T11:25:04.391Z,40.27
2023-06-16T11:27:35.370Z,40.47
2023-06-16T11:30:07.044Z,40.28
2023-06-16T11:32:38.987Z,40.03
2023-06-16T11:35:10.467Z,38.95
2023-06-16T11:37:49.461Z,38.08
2023-06-16T11:40:23.311Z,37.72
2023-06-16T11:42:57.873Z,39.14
2023-06-16T11:45:29.287Z,40.50
2023-06-16T11:47:58.381Z,39.48
2023-06-16T11:50:29.420Z,39.12
2023-06-16T11:52:59.349Z,39.01
2023-06-16T11:55:31.328Z,39.23
2023-06-16T11:58:00.041Z,40.36
2023-06-16T12:00:29.570Z,39.66
2023-06-16T12:02:59.095Z,39.34
2023-06-16T12:05:31.533Z,39.89
2023-06-16T12:08:00.163Z,40.47
2023-06-16T12:10:29.081Z,41.36
2023-06-16T12:12:58.354Z,41.15
2023-06-16T12:15:28.678Z,41.81
2023-06-16T12:17:57.964Z,40.98
2023-06-16T12:20:28.080Z,41.21
2023-06-16T12:22:59.404Z,42.47
2023-06-16T12:25:28.379Z,41.98
2023-06-16T12:28:00.360Z,41.98
2023-06-16T12:30:37.741Z,41.06
2023-06-16T12:33:14.488Z,41.66
2023-06-16T12:35:45.012Z,42.16
2023-06-16T12:38:13.760Z,42.63
2023-06-16T12:40:44.106Z,41.40
2023-06-16T12:43:29.622Z,42.27
2023-06-16T12:45:58.170Z,43.48
2023-06-16T12:48:27.130Z,43.10
2023-06-16T12:50:57.367Z,42.69
2023-06-16T12:53:26.293Z,42.56
2023-06-16T12:55:54.955Z,42.65
2023-06-16T12:58:24.624Z,42.16
2023-06-16T13:00:53.451Z,40.47
2023-06-16T13:03:22.059Z,39.97
2023-06-16T13:05:50.536Z,39.65
2023-06-16T13:08:20.955Z,40.57
2023-06-16T13:10:49.500Z,38.32
2023-06-16T13:13:17.914Z,38.38
2023-06-16T13:15:47.398Z,39.40
2023-06-16T13:18:16.085Z,39.24
2023-06-16T13:20:46.548Z,39.62
2023-06-16T13:23:15.025Z,40.08
2023-06-16T13:25:45.039Z,41.04
2023-06-16T13:28:14.061Z,40.17
2023-06-16T13:30:43.752Z,41.02
2023-06-16T13:33:12.972Z,41.38
2023-06-16T13:35:42.146Z,41.30
2023-06-16T13:38:10.831Z,41.28
2023-06-16T13:40:39.621Z,41.40
2023-06-16T13:43:09.546Z,41.42
2023-06-16T13:45:39.273Z,40.47
2023-06-16T13:48:07.753Z,39.40
2023-06-16T13:50:37.485Z,38.97
2023-06-16T13:53:06.019Z,38.41
2023-06-16T13:55:34.428Z,38.50
2023-06-16T13:58:03.691Z,37.98
2023-06-16T14:00:33.623Z,38.78
2023-06-16T14:03:02.237Z,39.26
2023-06-16T14:05:30.824Z,40.10
2023-06-16T14:07:59.575Z,39.72
2023-06-16T14:10:28.643Z,38.76
2023-06-16T14:12:57.079Z,39.43
2023-06-16T14:15:26.402Z,39.54
2023-06-16T14:17:56.786Z,39.28
2023-06-16T14:20:25.610Z,38.68
2023-06-16T14:22:55.889Z,39.17
2023-06-16T14:25:24.713Z,38.67
2023-06-16T14:27:53.189Z,38.92
2023-06-16T14:30:22.689Z,38.78
2023-06-16T14:32:51.733Z,39.24
2023-06-16T14:35:21.521Z,39.57
2023-06-16T14:37:50.001Z,38.91
2023-06-16T14:40:18.668Z,39.26
2023-06-16T14:42:47.728Z,38.49
2023-06-16T14:45:17.825Z,37.80
2023-06-16T14:47:47.869Z,37.60
2023-06-16T14:50:17.968Z,37.95
2023-06-16T14:52:48.261Z,37.33
2023-06-16T14:55:16.875Z,37.00
2023-06-16T14:57:45.372Z,36.36
2023-06-16T15:00:16.258Z,37.39
2023-06-16T15:03:00.306Z,36.78
2023-06-16T15:05:28.966Z,36.61
2023-06-16T15:07:58.956Z,36.59
2023-06-16T15:10:28.459Z,36.31
2023-06-16T15:12:57.539Z,35.79
2023-06-16T15:15:26.911Z,36.39
2023-06-16T15:17:55.452Z,35.35
2023-06-16T15:20:24.831Z,35.59
2023-06-16T15:22:53.745Z,35.34
2023-06-16T15:25:25.314Z,35.15
2023-06-16T15:28:03.298Z,35.60
2023-06-16T15:30:39.747Z,36.03
2023-06-16T15:33:08.439Z,35.64
2023-06-16T15:35:37.130Z,35.53
2023-06-16T15:38:05.611Z,35.27
2023-06-16T15:40:35.830Z,35.70
2023-06-16T15:43:09.814Z,35.51
2023-06-16T15:45:39.332Z,36.87
2023-06-16T15:48:08.808Z,36.90
2023-06-16T15:50:37.417Z,37.27
2023-06-16T15:53:07.017Z,36.21
2023-06-16T15:55:37.070Z,36.33
2023-06-16T15:58:05.578Z,35.88
2023-06-16T16:00:34.595Z,36.13
2023-06-16T16:03:07.363Z,36.13
2023-06-16T16:05:36.472Z,36.58
2023-06-16T16:08:05.863Z,36.64
2023-06-16T16:10:36.736Z,36.52
2023-06-16T16:13:06.953Z,36.78
2023-06-16T16:15:37.659Z,37.28
2023-06-16T16:18:07.428Z,36.28
2023-06-16T16:20:36.474Z,36.95
2023-06-16T16:23:04.969Z,36.28
2023-06-16T16:25:33.868Z,36.93
2023-06-16T16:28:02.727Z,37.79
2023-06-16T16:30:33.556Z,37.12
2023-06-16T16:33:02.170Z,37.25
2023-06-16T16:35:30.744Z,38.06
2023-06-16T16:37:59.211Z,38.06
2023-06-16T16:40:30.060Z,36.63
2023-06-16T16:42:59.000Z,36.31
2023-06-16T16:45:27.428Z,36.72
2023-06-16T16:47:58.842Z,37.01
2023-06-16T16:50:27.804Z,36.83
2023-06-16T16:52:56.310Z,35.69
2023-06-16T16:55:34.655Z,36.48
2023-06-16T16:58:05.524Z,35.72
2023-06-16T17:00:35.101Z,35.09
2023-06-16T17:03:26.668Z,35.09
2023-06-16T17:05:55.171Z,34.90
2023-06-16T17:08:23.783Z,35.03
2023-06-16T17:10:52.346Z,35.05
2023-06-16T17:13:21.311Z,34.62
2023-06-16T17:15:49.894Z,34.87
2023-06-16T17:18:21.456Z,34.71
2023-06-16T17:20:49.924Z,35.09
2023-06-16T17:23:18.541Z,35.14
2023-06-16T17:25:47.605Z,35.47
2023-06-16T17:28:16.071Z,35.85
2023-06-16T17:30:44.623Z,36.15
2023-06-16T17:33:13.178Z,36.73
2023-06-16T17:35:44.049Z,36.89
2023-06-16T17:38:12.664Z,36.87
2023-06-16T17:40:41.326Z,36.19
2023-06-16T17:43:09.855Z,37.39
2023-06-16T17:45:38.356Z,37.74
2023-06-16T17:48:07.902Z,37.49
2023-06-16T17:50:36.836Z,37.88
2023-06-16T17:53:07.980Z,38.04
2023-06-16T17:55:37.481Z,38.29
2023-06-16T17:58:06.471Z,38.17
2023-06-16T18:00:35.078Z,39.25
2023-06-16T18:03:03.814Z,39.23
2023-06-16T18:05:33.497Z,38.74
2023-06-16T18:08:01.935Z,38.25
2023-06-16T18:10:31.922Z,38.19
2023-06-16T18:13:00.405Z,37.29
2023-06-16T18:15:29.020Z,37.58
2023-06-16T18:17:57.507Z,37.41
2023-06-16T18:20:26.669Z,37.89
2023-06-16T18:22:55.946Z,36.38
2023-06-16T18:25:26.700Z,36.86
2023-06-16T18:27:57.307Z,36.84
2023-06-16T18:30:25.818Z,37.47
2023-06-16T18:32:54.410Z,37.45
2023-06-16T18:35:23.113Z,37.68
2023-06-16T18:37:52.122Z,38.25
2023-06-16T18:40:21.057Z,38.50
2023-06-16T18:42:50.580Z,38.98
2023-06-16T18:45:20.482Z,39.94
2023-06-16T18:47:49.155Z,39.82
2023-06-16T18:50:17.956Z,40.02
2023-06-16T18:52:46.621Z,40.60
2023-06-16T18:55:15.190Z,40.16
2023-06-16T18:57:43.638Z,40.61
2023-06-16T19:00:13.054Z,41.15
2023-06-16T19:02:42.959Z,41.16
2023-06-16T19:05:13.924Z,41.39
2023-06-16T19:07:42.483Z,41.52
2023-06-16T19:10:12.243Z,41.51
2023-06-16T19:12:40.783Z,41.83
2023-06-16T19:15:13.270Z,42.26
2023-06-16T19:17:43.192Z,42.17
2023-06-16T19:20:17.209Z,42.57
2023-06-16T19:22:46.014Z,42.91
2023-06-16T19:25:15.022Z,43.14
2023-06-16T19:27:43.493Z,43.15
2023-06-16T19:30:12.867Z,43.95
2023-06-16T19:32:46.510Z,44.39
2023-06-16T19:35:15.086Z,44.22
2023-06-16T19:37:43.670Z,44.49
2023-06-16T19:40:13.628Z,44.67
2023-06-16T19:42:42.676Z,44.83
2023-06-16T19:45:12.175Z,45.25
2023-06-16T19:47:42.186Z,45.58
2023-06-16T19:50:11.522Z,45.91
2023-06-16T19:52:40.804Z,46.19
2023-06-16T19:55:11.182Z,46.66
2023-06-16T19:57:39.604Z,47.38
2023-06-16T20:00:11.358Z,47.70
2023-06-16T20:02:40.309Z,48.32
2023-06-16T20:05:11.096Z,48.43
2023-06-16T20:07:39.828Z,48.85
2023-06-16T20:10:09.627Z,49.54
2023-06-16T20:12:38.649Z,49.79
2023-06-16T20:15:08.250Z,50.10
2023-06-16T20:17:36.872Z,50.73
2023-06-16T20:20:09.408Z,51.14
2023-06-16T20:22:40.210Z,50.99
2023-06-16T20:25:11.119Z,51.86
2023-06-16T20:27:40.441Z,52.23
2023-06-16T20:30:10.262Z,52.81
2023-06-16T20:32:40.747Z,52.96
2023-06-16T20:35:12.121Z,53.83
2023-06-16T20:37:41.972Z,53.84
2023-06-16T20:40:12.953Z,54.28
2023-06-16T20:42:42.006Z,54.12
2023-06-16T20:45:16.632Z,55.08
2023-06-16T20:47:50.634Z,55.69
2023-06-16T20:50:22.499Z,55.81
2023-06-16T20:52:53.728Z,55.90
2023-06-16T20:55:22.387Z,56.40
2023-06-16T20:57:57.280Z,56.75
2023-06-16T21:00:28.849Z,56.64
2023-06-16T21:02:57.603Z,57.27
2023-06-16T21:05:30.270Z,57.31
2023-06-16T21:08:00.301Z,57.79
2023-06-16T21:10:28.963Z,58.52
2023-06-16T21:12:57.445Z,59.20
2023-06-16T21:15:26.019Z,59.27
2023-06-16T21:17:54.606Z,59.27
2023-06-16T21:20:23.347Z,59.38
2023-06-16T21:22:52.267Z,59.91
2023-06-16T21:25:22.826Z,59.99
2023-06-16T21:27:51.827Z,61.00
2023-06-16T21:30:22.603Z,61.53
2023-06-16T21:32:51.338Z,62.09
2023-06-16T21:35:19.858Z,62.30
2023-06-16T21:37:48.835Z,62.87
2023-06-16T21:40:17.654Z,63.22
2023-06-16T21:42:48.122Z,63.35
2023-06-16T21:45:16.856Z,63.93
2023-06-16T21:47:45.565Z,64.43
2023-06-16T21:50:14.103Z,65.44
2023-06-16T21:52:43.457Z,65.97
2023-06-16T21:55:12.209Z,66.06
2023-06-16T21:57:40.834Z,66.39
2023-06-16T22:00:12.856Z,66.52
2023-06-16T22:02:41.687Z,66.72
2023-06-16T22:05:13.220Z,67.12
2023-06-16T22:07:42.117Z,67.80
2023-06-16T22:10:12.616Z,68.77
2023-06-16T22:12:42.409Z,68.68
2023-06-16T22:15:14.057Z,69.07
2023-06-16T22:17:43.535Z,69.21
2023-06-16T22:20:13.661Z,69.17
2023-06-16T22:22:42.210Z,69.42
2023-06-16T22:25:13.479Z,69.82
2023-06-16T22:27:42.838Z,70.43
2023-06-16T22:30:14.578Z,71.49
2023-06-16T22:32:43.194Z,72.30
2023-06-16T22:35:12.646Z,72.91
2023-06-16T22:37:41.172Z,73.50
2023-06-16T22:40:11.269Z,73.59
2023-06-16T22:42:40.897Z,73.61
2023-06-16T22:45:13.798Z,74.14
2023-06-16T22:47:42.931Z,74.04
2023-06-16T22:50:12.954Z,74.64
2023-06-16T22:52:41.486Z,75.11
2023-06-16T22:55:11.280Z,74.93
2023-06-16T22:57:39.791Z,74.89
2023-06-16T23:00:13.047Z,75.59
2023-06-16T23:02:43.425Z,75.53
2023-06-16T23:05:12.833Z,76.05
2023-06-16T23:07:44.089Z,76.89
2023-06-16T23:10:13.606Z,77.25
2023-06-16T23:12:43.209Z,77.04
2023-06-16T23:15:11.857Z,77.29
2023-06-16T23:17:40.401Z,77.70
2023-06-16T23:20:14.586Z,77.58
2023-06-16T23:22:46.169Z,77.68
2023-06-16T23:25:16.383Z,78.54
2023-06-16T23:27:45.483Z,78.75
2023-06-16T23:30:15.489Z,79.09
2023-06-16T23:32:44.551Z,79.30
2023-06-16T23:35:14.397Z,79.84
2023-06-16T23:37:45.796Z,80.46
2023-06-16T23:40:14.846Z,80.71
2023-06-16T23:42:43.607Z,80.87
2023-06-16T23:45:14.215Z,81.29
2023-06-16T23:47:43.237Z,81.65
2023-06-16T23:50:13.647Z,81.65
2023-06-16T23:52:42.180Z,82.31
2023-06-16T23:55:11.673Z,82.42
2023-06-16T23:57:41.637Z,82.42
